sensor_id;sensor_type;location;lat;lon;timestamp;P1;durP1;ratioP1;P2;durP2;ratioP2
55140;SDS011;41035;44.280;19.870;2022-08-25T00:00:32;17.45;;;10.77;;
55140;SDS011;41035;44.280;19.870;2022-08-25T00:02:58;13.77;;;10.70;;
55140;SDS011;41035;44.280;19.870;2022-08-25T00:05:25;12.55;;;9.40;;
55140;SDS011;41035;44.280;19.870;2022-08-25T00:07:51;16.73;;;11.02;;
55140;SDS011;41035;44.280;19.870;2022-08-25T00:10:17;16.70;;;10.40;;
55140;SDS011;41035;44.280;19.870;2022-08-25T00:12:44;18.98;;;11.10;;
55140;SDS011;41035;44.280;19.870;2022-08-25T00:15:10;20.92;;;10.40;;
55140;SDS011;41035;44.280;19.870;2022-08-25T00:17:37;14.57;;;10.82;;
55140;SDS011;41035;44.280;19.870;2022-08-25T00:20:03;14.27;;;10.07;;
55140;SDS011;41035;44.280;19.870;2022-08-25T00:22:29;17.05;;;11.25;;
55140;SDS011;41035;44.280;19.870;2022-08-25T00:24:56;18.23;;;10.73;;
55140;SDS011;41035;44.280;19.870;2022-08-25T00:27:22;16.48;;;10.35;;
55140;SDS011;41035;44.280;19.870;2022-08-25T00:29:48;13.90;;;9.90;;
55140;SDS011;41035;44.280;19.870;2022-08-25T00:32:14;16.13;;;10.95;;
55140;SDS011;41035;44.280;19.870;2022-08-25T00:34:42;19.33;;;9.80;;
55140;SDS011;41035;44.280;19.870;2022-08-25T00:37:08;13.75;;;9.88;;
55140;SDS011;41035;44.280;19.870;2022-08-25T00:39:35;12.25;;;10.45;;
55140;SDS011;41035;44.280;19.870;2022-08-25T00:42:01;17.40;;;11.00;;
55140;SDS011;41035;44.280;19.870;2022-08-25T00:44:30;20.95;;;10.68;;
55140;SDS011;41035;44.280;19.870;2022-08-25T00:46:57;17.65;;;10.95;;
55140;SDS011;41035;44.280;19.870;2022-08-25T00:51:58;16.65;;;10.93;;
55140;SDS011;41035;44.280;19.870;2022-08-25T00:54:37;17.90;;;11.40;;
55140;SDS011;41035;44.280;19.870;2022-08-25T00:57:06;17.80;;;10.77;;
55140;SDS011;41035;44.280;19.870;2022-08-25T00:59:32;17.60;;;11.32;;
55140;SDS011;41035;44.280;19.870;2022-08-25T01:01:59;13.88;;;10.43;;
55140;SDS011;41035;44.280;19.870;2022-08-25T01:04:26;15.85;;;10.25;;
55140;SDS011;41035;44.280;19.870;2022-08-25T01:06:52;15.32;;;10.85;;
55140;SDS011;41035;44.280;19.870;2022-08-25T01:09:19;15.23;;;10.65;;
55140;SDS011;41035;44.280;19.870;2022-08-25T01:11:45;14.48;;;11.02;;
55140;SDS011;41035;44.280;19.870;2022-08-25T01:14:13;21.10;;;11.30;;
55140;SDS011;41035;44.280;19.870;2022-08-25T01:16:39;12.88;;;10.70;;
55140;SDS011;41035;44.280;19.870;2022-08-25T01:19:08;17.38;;;11.02;;
55140;SDS011;41035;44.280;19.870;2022-08-25T01:21:52;17.50;;;11.68;;
55140;SDS011;41035;44.280;19.870;2022-08-25T01:24:39;17.65;;;11.70;;
55140;SDS011;41035;44.280;19.870;2022-08-25T01:29:33;19.08;;;12.10;;
55140;SDS011;41035;44.280;19.870;2022-08-25T01:32:04;17.67;;;11.38;;
55140;SDS011;41035;44.280;19.870;2022-08-25T01:34:32;17.77;;;12.20;;
55140;SDS011;41035;44.280;19.870;2022-08-25T01:36:58;18.33;;;11.35;;
55140;SDS011;41035;44.280;19.870;2022-08-25T01:39:26;17.80;;;11.10;;
55140;SDS011;41035;44.280;19.870;2022-08-25T01:44:30;15.32;;;11.27;;
55140;SDS011;41035;44.280;19.870;2022-08-25T01:46:57;16.90;;;11.90;;
55140;SDS011;41035;44.280;19.870;2022-08-25T01:49:23;23.20;;;11.07;;
55140;SDS011;41035;44.280;19.870;2022-08-25T01:51:55;14.82;;;10.63;;
55140;SDS011;41035;44.280;19.870;2022-08-25T01:54:21;18.20;;;12.00;;
55140;SDS011;41035;44.280;19.870;2022-08-25T01:56:47;22.58;;;12.20;;
55140;SDS011;41035;44.280;19.870;2022-08-25T01:59:15;22.15;;;11.35;;
55140;SDS011;41035;44.280;19.870;2022-08-25T02:01:41;18.92;;;11.20;;
55140;SDS011;41035;44.280;19.870;2022-08-25T02:04:07;18.73;;;10.95;;
55140;SDS011;41035;44.280;19.870;2022-08-25T02:06:33;18.65;;;11.10;;
55140;SDS011;41035;44.280;19.870;2022-08-25T02:09:01;15.98;;;11.50;;
55140;SDS011;41035;44.280;19.870;2022-08-25T02:11:29;17.30;;;10.50;;
55140;SDS011;41035;44.280;19.870;2022-08-25T02:13:56;20.10;;;10.73;;
55140;SDS011;41035;44.280;19.870;2022-08-25T02:16:25;19.00;;;11.40;;
55140;SDS011;41035;44.280;19.870;2022-08-25T02:18:53;14.10;;;11.43;;
55140;SDS011;41035;44.280;19.870;2022-08-25T02:21:19;12.23;;;10.55;;
55140;SDS011;41035;44.280;19.870;2022-08-25T02:23:45;19.05;;;11.13;;
55140;SDS011;41035;44.280;19.870;2022-08-25T02:26:11;13.23;;;10.48;;
55140;SDS011;41035;44.280;19.870;2022-08-25T02:28:43;21.63;;;11.93;;
55140;SDS011;41035;44.280;19.870;2022-08-25T02:31:10;16.85;;;12.35;;
55140;SDS011;41035;44.280;19.870;2022-08-25T02:33:36;18.48;;;12.48;;
55140;SDS011;41035;44.280;19.870;2022-08-25T02:36:02;16.83;;;10.98;;
55140;SDS011;41035;44.280;19.870;2022-08-25T02:38:29;15.98;;;11.30;;
55140;SDS011;41035;44.280;19.870;2022-08-25T02:40:56;19.08;;;12.23;;
55140;SDS011;41035;44.280;19.870;2022-08-25T02:43:23;18.77;;;12.82;;
55140;SDS011;41035;44.280;19.870;2022-08-25T02:45:50;24.60;;;11.73;;
55140;SDS011;41035;44.280;19.870;2022-08-25T02:48:16;18.05;;;11.50;;
55140;SDS011;41035;44.280;19.870;2022-08-25T02:50:48;18.65;;;12.02;;
55140;SDS011;41035;44.280;19.870;2022-08-25T02:53:16;22.85;;;12.43;;
55140;SDS011;41035;44.280;19.870;2022-08-25T02:55:42;28.27;;;13.07;;
55140;SDS011;41035;44.280;19.870;2022-08-25T02:58:08;19.75;;;11.98;;
55140;SDS011;41035;44.280;19.870;2022-08-25T03:00:35;24.10;;;11.73;;
55140;SDS011;41035;44.280;19.870;2022-08-25T03:03:01;17.17;;;11.88;;
55140;SDS011;41035;44.280;19.870;2022-08-25T03:05:27;21.13;;;11.48;;
55140;SDS011;41035;44.280;19.870;2022-08-25T03:07:53;14.40;;;11.10;;
55140;SDS011;41035;44.280;19.870;2022-08-25T03:10:19;20.77;;;11.82;;
55140;SDS011;41035;44.280;19.870;2022-08-25T03:12:45;19.17;;;11.65;;
55140;SDS011;41035;44.280;19.870;2022-08-25T03:15:13;16.42;;;11.63;;
55140;SDS011;41035;44.280;19.870;2022-08-25T03:17:43;19.50;;;11.77;;
55140;SDS011;41035;44.280;19.870;2022-08-25T03:20:09;24.30;;;12.57;;
55140;SDS011;41035;44.280;19.870;2022-08-25T03:22:36;19.45;;;13.15;;
55140;SDS011;41035;44.280;19.870;2022-08-25T03:25:02;22.70;;;11.95;;
55140;SDS011;41035;44.280;19.870;2022-08-25T03:27:47;22.33;;;12.25;;
55140;SDS011;41035;44.280;19.870;2022-08-25T03:30:15;20.08;;;13.40;;
55140;SDS011;41035;44.280;19.870;2022-08-25T03:32:41;22.92;;;14.05;;
55140;SDS011;41035;44.280;19.870;2022-08-25T03:35:07;28.25;;;15.48;;
55140;SDS011;41035;44.280;19.870;2022-08-25T03:37:34;24.42;;;14.68;;
55140;SDS011;41035;44.280;19.870;2022-08-25T03:40:01;23.60;;;13.52;;
55140;SDS011;41035;44.280;19.870;2022-08-25T03:42:28;21.30;;;14.43;;
55140;SDS011;41035;44.280;19.870;2022-08-25T03:44:54;21.85;;;15.02;;
55140;SDS011;41035;44.280;19.870;2022-08-25T03:47:20;23.00;;;14.07;;
55140;SDS011;41035;44.280;19.870;2022-08-25T03:49:49;23.10;;;14.20;;
55140;SDS011;41035;44.280;19.870;2022-08-25T03:52:15;22.20;;;15.00;;
55140;SDS011;41035;44.280;19.870;2022-08-25T03:54:42;20.83;;;13.63;;
55140;SDS011;41035;44.280;19.870;2022-08-25T03:57:09;19.60;;;13.02;;
55140;SDS011;41035;44.280;19.870;2022-08-25T03:59:35;16.75;;;12.95;;
55140;SDS011;41035;44.280;19.870;2022-08-25T04:02:03;21.07;;;13.00;;
55140;SDS011;41035;44.280;19.870;2022-08-25T04:04:29;17.33;;;12.48;;
55140;SDS011;41035;44.280;19.870;2022-08-25T04:06:55;18.73;;;13.60;;
55140;SDS011;41035;44.280;19.870;2022-08-25T04:09:22;20.92;;;13.52;;
55140;SDS011;41035;44.280;19.870;2022-08-25T04:11:49;19.10;;;14.18;;
55140;SDS011;41035;44.280;19.870;2022-08-25T04:14:15;28.83;;;15.68;;
55140;SDS011;41035;44.280;19.870;2022-08-25T04:16:41;24.40;;;15.60;;
55140;SDS011;41035;44.280;19.870;2022-08-25T04:19:07;38.50;;;15.80;;
55140;SDS011;41035;44.280;19.870;2022-08-25T04:21:34;23.00;;;15.13;;
55140;SDS011;41035;44.280;19.870;2022-08-25T04:24:00;23.60;;;14.02;;
55140;SDS011;41035;44.280;19.870;2022-08-25T04:26:37;19.00;;;14.18;;
55140;SDS011;41035;44.280;19.870;2022-08-25T04:29:05;22.77;;;14.75;;
55140;SDS011;41035;44.280;19.870;2022-08-25T04:31:33;36.33;;;17.20;;
55140;SDS011;41035;44.280;19.870;2022-08-25T04:34:03;32.83;;;16.77;;
55140;SDS011;41035;44.280;19.870;2022-08-25T04:36:29;34.55;;;18.50;;
55140;SDS011;41035;44.280;19.870;2022-08-25T04:38:56;33.08;;;17.48;;
55140;SDS011;41035;44.280;19.870;2022-08-25T04:41:22;31.38;;;17.15;;
55140;SDS011;41035;44.280;19.870;2022-08-25T04:43:49;27.88;;;17.83;;
55140;SDS011;41035;44.280;19.870;2022-08-25T04:46:19;28.52;;;17.85;;
55140;SDS011;41035;44.280;19.870;2022-08-25T04:48:46;31.17;;;17.58;;
55140;SDS011;41035;44.280;19.870;2022-08-25T04:51:14;26.30;;;17.23;;
55140;SDS011;41035;44.280;19.870;2022-08-25T04:53:40;31.58;;;17.42;;
55140;SDS011;41035;44.280;19.870;2022-08-25T04:56:07;29.13;;;18.42;;
55140;SDS011;41035;44.280;19.870;2022-08-25T04:58:34;29.20;;;17.65;;
55140;SDS011;41035;44.280;19.870;2022-08-25T05:01:03;26.00;;;17.10;;
55140;SDS011;41035;44.280;19.870;2022-08-25T05:03:30;33.80;;;17.52;;
55140;SDS011;41035;44.280;19.870;2022-08-25T05:05:56;29.25;;;17.33;;
55140;SDS011;41035;44.280;19.870;2022-08-25T05:08:22;30.27;;;16.13;;
55140;SDS011;41035;44.280;19.870;2022-08-25T05:10:48;24.98;;;15.93;;
55140;SDS011;41035;44.280;19.870;2022-08-25T05:13:15;32.95;;;17.60;;
55140;SDS011;41035;44.280;19.870;2022-08-25T05:15:41;27.13;;;16.17;;
55140;SDS011;41035;44.280;19.870;2022-08-25T05:18:16;27.90;;;15.60;;
55140;SDS011;41035;44.280;19.870;2022-08-25T05:20:42;36.10;;;15.68;;
55140;SDS011;41035;44.280;19.870;2022-08-25T05:23:08;24.90;;;15.05;;
55140;SDS011;41035;44.280;19.870;2022-08-25T05:25:34;27.35;;;15.13;;
55140;SDS011;41035;44.280;19.870;2022-08-25T05:28:00;27.30;;;17.33;;
55140;SDS011;41035;44.280;19.870;2022-08-25T05:30:27;29.13;;;18.80;;
55140;SDS011;41035;44.280;19.870;2022-08-25T05:32:53;24.48;;;17.13;;
55140;SDS011;41035;44.280;19.870;2022-08-25T05:35:19;55.13;;;32.78;;
55140;SDS011;41035;44.280;19.870;2022-08-25T05:37:45;42.78;;;27.17;;
55140;SDS011;41035;44.280;19.870;2022-08-25T05:40:11;24.45;;;18.30;;
55140;SDS011;41035;44.280;19.870;2022-08-25T05:42:38;24.20;;;16.73;;
55140;SDS011;41035;44.280;19.870;2022-08-25T05:45:04;23.38;;;15.48;;
55140;SDS011;41035;44.280;19.870;2022-08-25T05:47:30;19.48;;;13.77;;
55140;SDS011;41035;44.280;19.870;2022-08-25T05:49:57;24.75;;;15.40;;
55140;SDS011;41035;44.280;19.870;2022-08-25T05:52:23;29.20;;;16.63;;
55140;SDS011;41035;44.280;19.870;2022-08-25T05:54:49;30.42;;;15.88;;
55140;SDS011;41035;44.280;19.870;2022-08-25T05:57:15;30.15;;;17.52;;
55140;SDS011;41035;44.280;19.870;2022-08-25T05:59:41;22.58;;;16.10;;
55140;SDS011;41035;44.280;19.870;2022-08-25T06:02:07;23.50;;;14.02;;
55140;SDS011;41035;44.280;19.870;2022-08-25T06:04:52;20.02;;;13.95;;
55140;SDS011;41035;44.280;19.870;2022-08-25T06:07:18;28.27;;;15.25;;
55140;SDS011;41035;44.280;19.870;2022-08-25T06:09:45;22.92;;;15.20;;
55140;SDS011;41035;44.280;19.870;2022-08-25T06:12:13;25.13;;;15.27;;
55140;SDS011;41035;44.280;19.870;2022-08-25T06:14:39;22.40;;;14.07;;
55140;SDS011;41035;44.280;19.870;2022-08-25T06:17:06;27.88;;;16.02;;
55140;SDS011;41035;44.280;19.870;2022-08-25T06:19:32;26.65;;;15.93;;
55140;SDS011;41035;44.280;19.870;2022-08-25T06:21:58;21.98;;;15.32;;
55140;SDS011;41035;44.280;19.870;2022-08-25T06:24:25;23.25;;;14.98;;
55140;SDS011;41035;44.280;19.870;2022-08-25T06:26:51;24.98;;;13.65;;
55140;SDS011;41035;44.280;19.870;2022-08-25T06:29:18;27.20;;;14.95;;
55140;SDS011;41035;44.280;19.870;2022-08-25T06:31:44;23.45;;;15.15;;
55140;SDS011;41035;44.280;19.870;2022-08-25T06:34:11;31.15;;;15.32;;
55140;SDS011;41035;44.280;19.870;2022-08-25T06:36:38;22.08;;;14.45;;
55140;SDS011;41035;44.280;19.870;2022-08-25T06:39:04;24.10;;;15.40;;
55140;SDS011;41035;44.280;19.870;2022-08-25T06:41:30;26.40;;;15.75;;
55140;SDS011;41035;44.280;19.870;2022-08-25T06:43:57;26.52;;;16.52;;
55140;SDS011;41035;44.280;19.870;2022-08-25T06:46:24;22.88;;;14.73;;
55140;SDS011;41035;44.280;19.870;2022-08-25T06:48:54;24.98;;;16.95;;
55140;SDS011;41035;44.280;19.870;2022-08-25T06:51:20;23.25;;;15.95;;
55140;SDS011;41035;44.280;19.870;2022-08-25T06:53:47;22.98;;;14.18;;
55140;SDS011;41035;44.280;19.870;2022-08-25T06:56:14;22.85;;;14.65;;
55140;SDS011;41035;44.280;19.870;2022-08-25T06:58:41;21.98;;;14.05;;
55140;SDS011;41035;44.280;19.870;2022-08-25T07:01:18;23.60;;;14.85;;
55140;SDS011;41035;44.280;19.870;2022-08-25T07:03:46;28.40;;;14.40;;
55140;SDS011;41035;44.280;19.870;2022-08-25T07:06:12;23.83;;;14.68;;
55140;SDS011;41035;44.280;19.870;2022-08-25T07:08:38;24.48;;;14.20;;
55140;SDS011;41035;44.280;19.870;2022-08-25T07:11:05;23.58;;;14.10;;
55140;SDS011;41035;44.280;19.870;2022-08-25T07:13:31;22.92;;;14.98;;
55140;SDS011;41035;44.280;19.870;2022-08-25T07:15:58;22.85;;;15.75;;
55140;SDS011;41035;44.280;19.870;2022-08-25T07:18:24;21.77;;;15.45;;
55140;SDS011;41035;44.280;19.870;2022-08-25T07:20:50;23.63;;;15.60;;
55140;SDS011;41035;44.280;19.870;2022-08-25T07:23:18;25.70;;;17.58;;
55140;SDS011;41035;44.280;19.870;2022-08-25T07:25:45;26.38;;;17.35;;
55140;SDS011;41035;44.280;19.870;2022-08-25T07:28:11;26.98;;;18.00;;
55140;SDS011;41035;44.280;19.870;2022-08-25T07:30:37;23.63;;;16.98;;
55140;SDS011;41035;44.280;19.870;2022-08-25T07:33:03;34.45;;;18.58;;
55140;SDS011;41035;44.280;19.870;2022-08-25T07:35:29;30.15;;;17.90;;
55140;SDS011;41035;44.280;19.870;2022-08-25T07:37:56;27.30;;;18.73;;
55140;SDS011;41035;44.280;19.870;2022-08-25T07:40:27;28.80;;;19.25;;
55140;SDS011;41035;44.280;19.870;2022-08-25T07:42:54;28.17;;;21.30;;
55140;SDS011;41035;44.280;19.870;2022-08-25T07:45:23;33.08;;;23.27;;
55140;SDS011;41035;44.280;19.870;2022-08-25T07:47:55;33.55;;;22.77;;
55140;SDS011;41035;44.280;19.870;2022-08-25T07:50:21;37.80;;;25.13;;
55140;SDS011;41035;44.280;19.870;2022-08-25T07:52:47;30.63;;;23.02;;
55140;SDS011;41035;44.280;19.870;2022-08-25T07:55:13;35.00;;;24.35;;
55140;SDS011;41035;44.280;19.870;2022-08-25T07:57:40;34.65;;;23.50;;
55140;SDS011;41035;44.280;19.870;2022-08-25T08:00:07;32.72;;;24.63;;
55140;SDS011;41035;44.280;19.870;2022-08-25T08:02:36;32.92;;;24.85;;
55140;SDS011;41035;44.280;19.870;2022-08-25T08:05:02;31.10;;;24.00;;
55140;SDS011;41035;44.280;19.870;2022-08-25T08:07:28;33.70;;;25.55;;
55140;SDS011;41035;44.280;19.870;2022-08-25T08:09:56;33.78;;;25.00;;
55140;SDS011;41035;44.280;19.870;2022-08-25T08:12:22;35.53;;;25.88;;
55140;SDS011;41035;44.280;19.870;2022-08-25T08:14:49;34.55;;;22.48;;
55140;SDS011;41035;44.280;19.870;2022-08-25T08:17:15;33.85;;;24.08;;
55140;SDS011;41035;44.280;19.870;2022-08-25T08:19:41;33.75;;;23.30;;
55140;SDS011;41035;44.280;19.870;2022-08-25T08:22:07;32.03;;;23.55;;
55140;SDS011;41035;44.280;19.870;2022-08-25T08:24:35;35.03;;;23.70;;
55140;SDS011;41035;44.280;19.870;2022-08-25T08:27:03;32.85;;;24.67;;
55140;SDS011;41035;44.280;19.870;2022-08-25T08:29:29;35.67;;;24.40;;
55140;SDS011;41035;44.280;19.870;2022-08-25T08:31:56;33.97;;;24.08;;
55140;SDS011;41035;44.280;19.870;2022-08-25T08:34:23;37.20;;;24.85;;
55140;SDS011;41035;44.280;19.870;2022-08-25T08:36:49;37.33;;;25.73;;
55140;SDS011;41035;44.280;19.870;2022-08-25T08:39:15;34.53;;;24.02;;
55140;SDS011;41035;44.280;19.870;2022-08-25T08:49:33;35.38;;;24.92;;
55140;SDS011;41035;44.280;19.870;2022-08-25T08:52:02;34.97;;;25.27;;
55140;SDS011;41035;44.280;19.870;2022-08-25T08:54:30;35.38;;;25.17;;
55140;SDS011;41035;44.280;19.870;2022-08-25T08:57:10;35.97;;;24.52;;
55140;SDS011;41035;44.280;19.870;2022-08-25T08:59:58;35.80;;;23.92;;
55140;SDS011;41035;44.280;19.870;2022-08-25T09:02:36;31.73;;;23.77;;
55140;SDS011;41035;44.280;19.870;2022-08-25T09:05:06;37.03;;;25.35;;
55140;SDS011;41035;44.280;19.870;2022-08-25T09:07:36;34.55;;;24.63;;
55140;SDS011;41035;44.280;19.870;2022-08-25T09:10:04;33.55;;;24.35;;
55140;SDS011;41035;44.280;19.870;2022-08-25T09:12:36;32.13;;;24.15;;
55140;SDS011;41035;44.280;19.870;2022-08-25T09:17:46;33.55;;;24.08;;
55140;SDS011;41035;44.280;19.870;2022-08-25T09:25:49;32.88;;;25.75;;
55140;SDS011;41035;44.280;19.870;2022-08-25T09:28:23;34.58;;;25.02;;
55140;SDS011;41035;44.280;19.870;2022-08-25T09:30:57;38.28;;;26.27;;
55140;SDS011;41035;44.280;19.870;2022-08-25T09:33:24;33.40;;;24.23;;
55140;SDS011;41035;44.280;19.870;2022-08-25T09:35:51;36.05;;;24.17;;
55140;SDS011;41035;44.280;19.870;2022-08-25T09:38:18;34.35;;;24.10;;
55140;SDS011;41035;44.280;19.870;2022-08-25T09:40:52;33.85;;;22.73;;
55140;SDS011;41035;44.280;19.870;2022-08-25T09:48:31;29.45;;;23.30;;
55140;SDS011;41035;44.280;19.870;2022-08-25T09:56:14;34.60;;;22.92;;
55140;SDS011;41035;44.280;19.870;2022-08-25T09:58:43;31.05;;;21.83;;
55140;SDS011;41035;44.280;19.870;2022-08-25T10:01:14;31.33;;;21.90;;
55140;SDS011;41035;44.280;19.870;2022-08-25T10:04:00;28.02;;;22.30;;
55140;SDS011;41035;44.280;19.870;2022-08-25T10:06:28;31.20;;;22.45;;
55140;SDS011;41035;44.280;19.870;2022-08-25T10:08:56;31.15;;;21.83;;
55140;SDS011;41035;44.280;19.870;2022-08-25T10:11:34;32.50;;;22.25;;
55140;SDS011;41035;44.280;19.870;2022-08-25T10:16:48;33.90;;;23.90;;
55140;SDS011;41035;44.280;19.870;2022-08-25T10:22:00;33.75;;;23.20;;
55140;SDS011;41035;44.280;19.870;2022-08-25T10:24:27;30.73;;;22.92;;
55140;SDS011;41035;44.280;19.870;2022-08-25T10:26:55;33.42;;;23.75;;
55140;SDS011;41035;44.280;19.870;2022-08-25T10:34:48;33.60;;;22.50;;
55140;SDS011;41035;44.280;19.870;2022-08-25T10:40:28;32.47;;;21.00;;
55140;SDS011;41035;44.280;19.870;2022-08-25T10:42:35;26.67;;;20.15;;
55140;SDS011;41035;44.280;19.870;2022-08-25T10:48:04;28.63;;;21.58;;
55140;SDS011;41035;44.280;19.870;2022-08-25T10:50:41;29.15;;;20.50;;
55140;SDS011;41035;44.280;19.870;2022-08-25T10:58:22;26.70;;;21.17;;
55140;SDS011;41035;44.280;19.870;2022-08-25T11:00:54;24.95;;;20.52;;
55140;SDS011;41035;44.280;19.870;2022-08-25T11:11:30;28.00;;;22.05;;
55140;SDS011;41035;44.280;19.870;2022-08-25T11:14:15;24.08;;;19.08;;
55140;SDS011;41035;44.280;19.870;2022-08-25T11:16:59;31.05;;;20.35;;
55140;SDS011;41035;44.280;19.870;2022-08-25T11:19:30;28.35;;;18.85;;
55140;SDS011;41035;44.280;19.870;2022-08-25T11:24:57;29.73;;;21.60;;
55140;SDS011;41035;44.280;19.870;2022-08-25T11:27:30;27.58;;;21.45;;
55140;SDS011;41035;44.280;19.870;2022-08-25T11:30:15;31.55;;;20.98;;
55140;SDS011;41035;44.280;19.870;2022-08-25T11:32:51;33.40;;;20.52;;
55140;SDS011;41035;44.280;19.870;2022-08-25T11:35:28;29.50;;;18.45;;
55140;SDS011;41035;44.280;19.870;2022-08-25T11:40:48;26.08;;;19.60;;
55140;SDS011;41035;44.280;19.870;2022-08-25T11:46:13;32.33;;;20.77;;
55140;SDS011;41035;44.280;19.870;2022-08-25T11:48:46;25.58;;;19.40;;
55140;SDS011;41035;44.280;19.870;2022-08-25T11:51:29;26.80;;;19.27;;
55140;SDS011;41035;44.280;19.870;2022-08-25T11:56:33;23.05;;;17.63;;
55140;SDS011;41035;44.280;19.870;2022-08-25T11:59:01;27.30;;;18.90;;
55140;SDS011;41035;44.280;19.870;2022-08-25T12:04:14;26.92;;;18.05;;
55140;SDS011;41035;44.280;19.870;2022-08-25T12:07:14;28.77;;;17.90;;
55140;SDS011;41035;44.280;19.870;2022-08-25T12:09:31;27.77;;;17.27;;
55140;SDS011;41035;44.280;19.870;2022-08-25T12:11:58;23.83;;;16.42;;
55140;SDS011;41035;44.280;19.870;2022-08-25T12:27:28;25.73;;;15.60;;
55140;SDS011;41035;44.280;19.870;2022-08-25T12:50:48;23.70;;;16.75;;
55140;SDS011;41035;44.280;19.870;2022-08-25T12:53:31;22.35;;;15.65;;
55140;SDS011;41035;44.280;19.870;2022-08-25T12:56:00;27.70;;;16.07;;
55140;SDS011;41035;44.280;19.870;2022-08-25T12:58:32;23.48;;;16.15;;
55140;SDS011;41035;44.280;19.870;2022-08-25T13:01:12;37.15;;;19.83;;
55140;SDS011;41035;44.280;19.870;2022-08-25T13:03:49;24.85;;;15.95;;
55140;SDS011;41035;44.280;19.870;2022-08-25T13:11:45;29.02;;;14.70;;
55140;SDS011;41035;44.280;19.870;2022-08-25T13:16:50;17.95;;;13.20;;
55140;SDS011;41035;44.280;19.870;2022-08-25T13:19:17;22.45;;;13.45;;
55140;SDS011;41035;44.280;19.870;2022-08-25T13:21:43;24.58;;;14.85;;
55140;SDS011;41035;44.280;19.870;2022-08-25T13:24:26;19.75;;;14.07;;
55140;SDS011;41035;44.280;19.870;2022-08-25T13:26:53;21.08;;;14.63;;
55140;SDS011;41035;44.280;19.870;2022-08-25T13:29:30;22.53;;;15.70;;
55140;SDS011;41035;44.280;19.870;2022-08-25T13:31:58;23.08;;;15.45;;
55140;SDS011;41035;44.280;19.870;2022-08-25T13:34:28;25.67;;;14.88;;
55140;SDS011;41035;44.280;19.870;2022-08-25T13:36:56;21.83;;;14.65;;
55140;SDS011;41035;44.280;19.870;2022-08-25T13:39:41;22.25;;;13.57;;
55140;SDS011;41035;44.280;19.870;2022-08-25T13:42:11;23.23;;;14.07;;
55140;SDS011;41035;44.280;19.870;2022-08-25T13:44:38;20.58;;;14.30;;
55140;SDS011;41035;44.280;19.870;2022-08-25T13:47:06;23.08;;;12.20;;
55140;SDS011;41035;44.280;19.870;2022-08-25T13:49:32;20.35;;;12.13;;
55140;SDS011;41035;44.280;19.870;2022-08-25T13:51:59;26.15;;;11.95;;
55140;SDS011;41035;44.280;19.870;2022-08-25T13:54:29;22.45;;;12.40;;
55140;SDS011;41035;44.280;19.870;2022-08-25T13:57:04;22.75;;;12.88;;
55140;SDS011;41035;44.280;19.870;2022-08-25T13:59:36;24.85;;;13.23;;
55140;SDS011;41035;44.280;19.870;2022-08-25T14:02:04;23.50;;;13.38;;
55140;SDS011;41035;44.280;19.870;2022-08-25T14:04:32;20.67;;;12.07;;
55140;SDS011;41035;44.280;19.870;2022-08-25T14:09:39;21.38;;;13.57;;
55140;SDS011;41035;44.280;19.870;2022-08-25T14:12:05;19.92;;;12.90;;
55140;SDS011;41035;44.280;19.870;2022-08-25T14:14:32;22.52;;;12.45;;
55140;SDS011;41035;44.280;19.870;2022-08-25T14:17:06;19.35;;;12.77;;
55140;SDS011;41035;44.280;19.870;2022-08-25T14:19:34;22.73;;;12.00;;
55140;SDS011;41035;44.280;19.870;2022-08-25T14:22:01;22.35;;;12.88;;
55140;SDS011;41035;44.280;19.870;2022-08-25T14:24:32;20.13;;;12.40;;
55140;SDS011;41035;44.280;19.870;2022-08-25T14:26:59;18.90;;;13.20;;
55140;SDS011;41035;44.280;19.870;2022-08-25T14:29:26;36.60;;;14.10;;
55140;SDS011;41035;44.280;19.870;2022-08-25T14:31:52;22.60;;;14.85;;
55140;SDS011;41035;44.280;19.870;2022-08-25T14:34:20;25.98;;;13.57;;
55140;SDS011;41035;44.280;19.870;2022-08-25T14:36:46;21.02;;;13.20;;
55140;SDS011;41035;44.280;19.870;2022-08-25T14:39:13;21.10;;;13.18;;
55140;SDS011;41035;44.280;19.870;2022-08-25T14:41:40;17.20;;;13.60;;
55140;SDS011;41035;44.280;19.870;2022-08-25T14:44:08;18.73;;;13.10;;
55140;SDS011;41035;44.280;19.870;2022-08-25T14:46:41;18.40;;;14.02;;
55140;SDS011;41035;44.280;19.870;2022-08-25T14:49:08;20.95;;;12.60;;
55140;SDS011;41035;44.280;19.870;2022-08-25T14:51:37;17.48;;;13.20;;
55140;SDS011;41035;44.280;19.870;2022-08-25T14:54:05;20.65;;;14.20;;
55140;SDS011;41035;44.280;19.870;2022-08-25T14:56:32;22.98;;;14.52;;
55140;SDS011;41035;44.280;19.870;2022-08-25T14:58:59;25.40;;;14.02;;
55140;SDS011;41035;44.280;19.870;2022-08-25T15:01:25;27.73;;;17.23;;
55140;SDS011;41035;44.280;19.870;2022-08-25T15:03:54;33.33;;;19.75;;
55140;SDS011;41035;44.280;19.870;2022-08-25T15:06:21;45.40;;;25.92;;
55140;SDS011;41035;44.280;19.870;2022-08-25T15:08:47;37.58;;;23.42;;
55140;SDS011;41035;44.280;19.870;2022-08-25T15:11:33;19.52;;;13.32;;
55140;SDS011;41035;44.280;19.870;2022-08-25T15:13:59;26.95;;;14.68;;
55140;SDS011;41035;44.280;19.870;2022-08-25T15:16:27;27.27;;;14.05;;
55140;SDS011;41035;44.280;19.870;2022-08-25T15:18:54;22.55;;;14.30;;
55140;SDS011;41035;44.280;19.870;2022-08-25T15:21:20;22.08;;;12.65;;
55140;SDS011;41035;44.280;19.870;2022-08-25T15:23:46;21.40;;;13.18;;
55140;SDS011;41035;44.280;19.870;2022-08-25T15:26:12;29.92;;;12.93;;
55140;SDS011;41035;44.280;19.870;2022-08-25T15:28:40;27.17;;;14.00;;
55140;SDS011;41035;44.280;19.870;2022-08-25T15:31:07;22.33;;;13.48;;
55140;SDS011;41035;44.280;19.870;2022-08-25T15:33:33;22.60;;;13.20;;
55140;SDS011;41035;44.280;19.870;2022-08-25T15:35:59;24.10;;;16.00;;
55140;SDS011;41035;44.280;19.870;2022-08-25T15:38:25;19.45;;;12.38;;
55140;SDS011;41035;44.280;19.870;2022-08-25T15:40:51;21.02;;;11.90;;
55140;SDS011;41035;44.280;19.870;2022-08-25T15:43:17;35.28;;;15.35;;
55140;SDS011;41035;44.280;19.870;2022-08-25T15:45:43;20.33;;;12.73;;
55140;SDS011;41035;44.280;19.870;2022-08-25T15:48:09;19.17;;;11.77;;
55140;SDS011;41035;44.280;19.870;2022-08-25T15:50:35;22.30;;;11.95;;
55140;SDS011;41035;44.280;19.870;2022-08-25T15:53:01;18.92;;;11.93;;
55140;SDS011;41035;44.280;19.870;2022-08-25T15:55:27;24.48;;;12.10;;
55140;SDS011;41035;44.280;19.870;2022-08-25T15:57:53;14.07;;;9.70;;
55140;SDS011;41035;44.280;19.870;2022-08-25T16:00:19;17.42;;;9.55;;
55140;SDS011;41035;44.280;19.870;2022-08-25T16:02:46;14.68;;;9.35;;
55140;SDS011;41035;44.280;19.870;2022-08-25T16:05:12;13.55;;;9.30;;
55140;SDS011;41035;44.280;19.870;2022-08-25T16:07:39;12.55;;;9.18;;
55140;SDS011;41035;44.280;19.870;2022-08-25T16:10:05;16.98;;;9.20;;
55140;SDS011;41035;44.280;19.870;2022-08-25T16:12:31;14.43;;;9.88;;
55140;SDS011;41035;44.280;19.870;2022-08-25T16:14:57;16.80;;;10.57;;
55140;SDS011;41035;44.280;19.870;2022-08-25T16:17:23;21.48;;;9.80;;